sensor_id;sensor_type;location;lat;lon;timestamp;P1;durP1;ratioP1;P2;durP2;ratioP2
51602;SDS011;37954;51.980;5.850;2023-06-14T00:01:10;2.05;;;1.95;;
51602;SDS011;37954;51.980;5.850;2023-06-14T00:05:24;3.88;;;2.33;;
51602;SDS011;37954;51.980;5.850;2023-06-14T00:09:36;7.30;;;2.53;;
51602;SDS011;37954;51.980;5.850;2023-06-14T00:13:48;2.95;;;2.05;;
51602;SDS011;37954;51.980;5.850;2023-06-14T00:17:59;3.20;;;2.20;;
51602;SDS011;37954;51.980;5.850;2023-06-14T00:22:12;3.45;;;2.45;;
51602;SDS011;37954;51.980;5.850;2023-06-14T00:26:24;4.60;;;2.58;;
51602;SDS011;37954;51.980;5.850;2023-06-14T00:30:37;3.67;;;2.00;;
51602;SDS011;37954;51.980;5.850;2023-06-14T00:34:49;3.08;;;2.45;;
51602;SDS011;37954;51.980;5.850;2023-06-14T00:39:00;3.50;;;2.22;;
51602;SDS011;37954;51.980;5.850;2023-06-14T00:43:12;2.47;;;2.08;;
51602;SDS011;37954;51.980;5.850;2023-06-14T00:47:24;3.03;;;2.25;;
51602;SDS011;37954;51.980;5.850;2023-06-14T00:51:36;2.75;;;2.05;;
51602;SDS011;37954;51.980;5.850;2023-06-14T00:55:48;5.00;;;2.10;;
51602;SDS011;37954;51.980;5.850;2023-06-14T01:00:00;2.63;;;1.92;;
51602;SDS011;37954;51.980;5.850;2023-06-14T01:04:13;3.08;;;2.03;;
51602;SDS011;37954;51.980;5.850;2023-06-14T01:08:27;4.70;;;2.10;;
51602;SDS011;37954;51.980;5.850;2023-06-14T01:12:50;3.08;;;1.80;;
51602;SDS011;37954;51.980;5.850;2023-06-14T01:17:24;6.32;;;2.53;;
51602;SDS011;37954;51.980;5.850;2023-06-14T01:21:38;2.20;;;1.92;;
51602;SDS011;37954;51.980;5.850;2023-06-14T01:25:53;6.38;;;2.20;;
51602;SDS011;37954;51.980;5.850;2023-06-14T01:30:06;3.28;;;2.10;;
51602;SDS011;37954;51.980;5.850;2023-06-14T01:34:19;2.63;;;1.90;;
51602;SDS011;37954;51.980;5.850;2023-06-14T01:38:35;5.35;;;2.00;;
51602;SDS011;37954;51.980;5.850;2023-06-14T01:42:49;6.45;;;2.25;;
51602;SDS011;37954;51.980;5.850;2023-06-14T01:47:02;2.35;;;1.92;;
51602;SDS011;37954;51.980;5.850;2023-06-14T01:51:14;2.92;;;1.88;;
51602;SDS011;37954;51.980;5.850;2023-06-14T01:55:26;2.00;;;1.80;;
51602;SDS011;37954;51.980;5.850;2023-06-14T01:59:38;5.22;;;2.30;;
51602;SDS011;37954;51.980;5.850;2023-06-14T02:03:50;3.60;;;2.15;;
51602;SDS011;37954;51.980;5.850;2023-06-14T02:08:02;3.03;;;2.25;;
51602;SDS011;37954;51.980;5.850;2023-06-14T02:12:15;4.22;;;2.30;;
51602;SDS011;37954;51.980;5.850;2023-06-14T02:16:26;5.93;;;2.25;;
51602;SDS011;37954;51.980;5.850;2023-06-14T02:20:39;2.65;;;1.83;;
51602;SDS011;37954;51.980;5.850;2023-06-14T02:24:51;2.25;;;2.00;;
51602;SDS011;37954;51.980;5.850;2023-06-14T02:29:12;4.28;;;2.17;;
51602;SDS011;37954;51.980;5.850;2023-06-14T02:33:26;3.25;;;2.35;;
51602;SDS011;37954;51.980;5.850;2023-06-14T02:37:38;2.10;;;1.83;;
51602;SDS011;37954;51.980;5.850;2023-06-14T02:41:50;2.50;;;1.80;;
51602;SDS011;37954;51.980;5.850;2023-06-14T02:46:02;2.40;;;1.90;;
51602;SDS011;37954;51.980;5.850;2023-06-14T02:50:14;6.78;;;2.55;;
51602;SDS011;37954;51.980;5.850;2023-06-14T02:54:27;2.50;;;2.00;;
51602;SDS011;37954;51.980;5.850;2023-06-14T02:58:39;2.83;;;2.08;;
51602;SDS011;37954;51.980;5.850;2023-06-14T03:02:52;2.63;;;1.75;;
51602;SDS011;37954;51.980;5.850;2023-06-14T03:07:05;3.78;;;1.70;;
51602;SDS011;37954;51.980;5.850;2023-06-14T03:11:22;8.75;;;2.28;;
51602;SDS011;37954;51.980;5.850;2023-06-14T03:15:34;2.05;;;1.85;;
51602;SDS011;37954;51.980;5.850;2023-06-14T03:19:46;2.30;;;2.10;;
51602;SDS011;37954;51.980;5.850;2023-06-14T03:24:00;2.30;;;1.98;;
51602;SDS011;37954;51.980;5.850;2023-06-14T03:28:12;2.42;;;1.77;;
51602;SDS011;37954;51.980;5.850;2023-06-14T03:32:24;3.47;;;2.30;;
51602;SDS011;37954;51.980;5.850;2023-06-14T03:36:36;2.17;;;1.70;;
51602;SDS011;37954;51.980;5.850;2023-06-14T03:40:47;2.88;;;2.20;;
51602;SDS011;37954;51.980;5.850;2023-06-14T03:44:59;4.22;;;2.22;;
51602;SDS011;37954;51.980;5.850;2023-06-14T03:49:12;3.55;;;2.08;;
51602;SDS011;37954;51.980;5.850;2023-06-14T03:53:24;4.63;;;2.33;;
51602;SDS011;37954;51.980;5.850;2023-06-14T03:57:38;2.25;;;2.05;;
51602;SDS011;37954;51.980;5.850;2023-06-14T04:01:54;2.22;;;1.80;;
51602;SDS011;37954;51.980;5.850;2023-06-14T04:06:06;7.00;;;1.98;;
51602;SDS011;37954;51.980;5.850;2023-06-14T04:10:19;3.08;;;1.67;;
51602;SDS011;37954;51.980;5.850;2023-06-14T04:14:32;4.28;;;2.15;;
51602;SDS011;37954;51.980;5.850;2023-06-14T04:18:45;6.45;;;1.90;;
51602;SDS011;37954;51.980;5.850;2023-06-14T04:23:10;3.92;;;2.10;;
51602;SDS011;37954;51.980;5.850;2023-06-14T04:27:24;3.63;;;2.03;;
51602;SDS011;37954;51.980;5.850;2023-06-14T04:31:37;2.30;;;2.10;;
51602;SDS011;37954;51.980;5.850;2023-06-14T04:35:52;2.08;;;1.88;;
51602;SDS011;37954;51.980;5.850;2023-06-14T04:40:06;2.80;;;1.73;;
51602;SDS011;37954;51.980;5.850;2023-06-14T04:44:23;4.68;;;1.90;;
51602;SDS011;37954;51.980;5.850;2023-06-14T04:48:42;2.20;;;1.88;;
51602;SDS011;37954;51.980;5.850;2023-06-14T04:52:55;2.58;;;2.08;;
51602;SDS011;37954;51.980;5.850;2023-06-14T04:57:09;2.83;;;2.17;;
51602;SDS011;37954;51.980;5.850;2023-06-14T05:01:26;2.53;;;2.00;;
51602;SDS011;37954;51.980;5.850;2023-06-14T05:05:38;4.80;;;2.25;;
51602;SDS011;37954;51.980;5.850;2023-06-14T05:09:52;2.08;;;1.65;;
51602;SDS011;37954;51.980;5.850;2023-06-14T05:14:04;2.55;;;2.05;;
51602;SDS011;37954;51.980;5.850;2023-06-14T05:18:18;1.92;;;1.75;;
51602;SDS011;37954;51.980;5.850;2023-06-14T05:22:32;3.88;;;2.00;;
51602;SDS011;37954;51.980;5.850;2023-06-14T05:26:44;2.13;;;1.83;;
51602;SDS011;37954;51.980;5.850;2023-06-14T05:30:56;10.15;;;2.42;;
51602;SDS011;37954;51.980;5.850;2023-06-14T05:35:09;7.78;;;2.00;;
51602;SDS011;37954;51.980;5.850;2023-06-14T05:39:22;3.10;;;2.55;;
51602;SDS011;37954;51.980;5.850;2023-06-14T05:43:35;4.95;;;2.17;;
51602;SDS011;37954;51.980;5.850;2023-06-14T05:47:47;3.63;;;2.03;;
51602;SDS011;37954;51.980;5.850;2023-06-14T05:51:59;4.30;;;2.38;;
51602;SDS011;37954;51.980;5.850;2023-06-14T05:56:10;2.00;;;1.80;;
51602;SDS011;37954;51.980;5.850;2023-06-14T06:00:22;3.17;;;1.95;;
51602;SDS011;37954;51.980;5.850;2023-06-14T06:04:34;2.20;;;2.00;;
51602;SDS011;37954;51.980;5.850;2023-06-14T06:08:46;3.33;;;2.28;;
51602;SDS011;37954;51.980;5.850;2023-06-14T06:12:58;3.55;;;2.30;;
51602;SDS011;37954;51.980;5.850;2023-06-14T06:17:09;2.85;;;1.98;;
51602;SDS011;37954;51.980;5.850;2023-06-14T06:21:21;3.35;;;2.45;;
51602;SDS011;37954;51.980;5.850;2023-06-14T06:25:33;3.75;;;2.40;;
51602;SDS011;37954;51.980;5.850;2023-06-14T06:29:44;2.67;;;2.22;;
51602;SDS011;37954;51.980;5.850;2023-06-14T06:33:56;3.80;;;2.58;;
51602;SDS011;37954;51.980;5.850;2023-06-14T06:38:08;2.70;;;2.10;;
51602;SDS011;37954;51.980;5.850;2023-06-14T06:42:21;2.78;;;2.38;;
51602;SDS011;37954;51.980;5.850;2023-06-14T06:46:35;3.13;;;2.33;;
51602;SDS011;37954;51.980;5.850;2023-06-14T06:50:51;1.90;;;1.80;;
51602;SDS011;37954;51.980;5.850;2023-06-14T06:55:03;2.13;;;1.98;;
51602;SDS011;37954;51.980;5.850;2023-06-14T06:59:15;12.02;;;2.30;;
51602;SDS011;37954;51.980;5.850;2023-06-14T07:03:28;2.45;;;2.00;;
51602;SDS011;37954;51.980;5.850;2023-06-14T07:07:40;2.58;;;2.13;;
51602;SDS011;37954;51.980;5.850;2023-06-14T07:11:52;3.97;;;2.13;;
51602;SDS011;37954;51.980;5.850;2023-06-14T07:16:04;3.72;;;2.03;;
51602;SDS011;37954;51.980;5.850;2023-06-14T07:20:16;4.38;;;2.00;;
51602;SDS011;37954;51.980;5.850;2023-06-14T07:24:28;3.35;;;2.25;;
51602;SDS011;37954;51.980;5.850;2023-06-14T07:28:40;2.80;;;1.65;;
51602;SDS011;37954;51.980;5.850;2023-06-14T07:32:52;5.68;;;1.90;;
51602;SDS011;37954;51.980;5.850;2023-06-14T07:37:04;2.45;;;1.90;;
51602;SDS011;37954;51.980;5.850;2023-06-14T07:41:16;2.00;;;1.80;;
51602;SDS011;37954;51.980;5.850;2023-06-14T07:45:28;1.77;;;1.60;;
51602;SDS011;37954;51.980;5.850;2023-06-14T07:49:40;1.70;;;1.60;;
51602;SDS011;37954;51.980;5.850;2023-06-14T07:53:52;1.90;;;1.60;;
51602;SDS011;37954;51.980;5.850;2023-06-14T07:58:03;1.67;;;1.50;;
51602;SDS011;37954;51.980;5.850;2023-06-14T08:02:16;2.25;;;1.70;;
51602;SDS011;37954;51.980;5.850;2023-06-14T08:06:27;1.50;;;1.40;;
51602;SDS011;37954;51.980;5.850;2023-06-14T08:10:39;1.73;;;1.30;;
51602;SDS011;37954;51.980;5.850;2023-06-14T08:14:51;1.52;;;1.42;;
51602;SDS011;37954;51.980;5.850;2023-06-14T08:19:23;1.40;;;1.30;;
51602;SDS011;37954;51.980;5.850;2023-06-14T08:23:34;3.78;;;1.40;;
51602;SDS011;37954;51.980;5.850;2023-06-14T08:27:47;1.92;;;1.55;;
51602;SDS011;37954;51.980;5.850;2023-06-14T08:31:59;1.67;;;1.55;;
51602;SDS011;37954;51.980;5.850;2023-06-14T08:36:11;1.50;;;1.40;;
51602;SDS011;37954;51.980;5.850;2023-06-14T08:40:24;1.80;;;1.65;;
51602;SDS011;37954;51.980;5.850;2023-06-14T08:44:36;1.52;;;1.42;;
51602;SDS011;37954;51.980;5.850;2023-06-14T08:48:48;1.50;;;1.40;;
51602;SDS011;37954;51.980;5.850;2023-06-14T08:53:01;1.85;;;1.63;;
51602;SDS011;37954;51.980;5.850;2023-06-14T08:57:15;1.70;;;1.60;;
51602;SDS011;37954;51.980;5.850;2023-06-14T09:01:28;3.05;;;1.80;;
51602;SDS011;37954;51.980;5.850;2023-06-14T09:05:40;2.10;;;1.70;;
51602;SDS011;37954;51.980;5.850;2023-06-14T09:10:05;2.30;;;1.95;;
51602;SDS011;37954;51.980;5.850;2023-06-14T09:14:19;1.70;;;1.60;;
51602;SDS011;37954;51.980;5.850;2023-06-14T09:18:39;1.55;;;1.42;;
51602;SDS011;37954;51.980;5.850;2023-06-14T09:22:53;1.55;;;1.42;;
51602;SDS011;37954;51.980;5.850;2023-06-14T09:27:05;1.63;;;1.52;;
51602;SDS011;37954;51.980;5.850;2023-06-14T09:31:18;4.88;;;1.63;;
51602;SDS011;37954;51.980;5.850;2023-06-14T09:35:31;3.47;;;1.80;;
51602;SDS011;37954;51.980;5.850;2023-06-14T09:39:50;2.05;;;1.80;;
51602;SDS011;37954;51.980;5.850;2023-06-14T09:44:06;1.90;;;1.60;;
51602;SDS011;37954;51.980;5.850;2023-06-14T09:48:27;1.40;;;1.30;;
51602;SDS011;37954;51.980;5.850;2023-06-14T09:52:39;1.40;;;1.30;;
51602;SDS011;37954;51.980;5.850;2023-06-14T09:56:54;2.28;;;1.75;;
51602;SDS011;37954;51.980;5.850;2023-06-14T10:01:06;1.38;;;1.27;;
51602;SDS011;37954;51.980;5.850;2023-06-14T10:05:21;2.85;;;1.33;;
51602;SDS011;37954;51.980;5.850;2023-06-14T10:09:34;2.15;;;1.58;;
51602;SDS011;37954;51.980;5.850;2023-06-14T10:13:47;1.30;;;1.20;;
51602;SDS011;37954;51.980;5.850;2023-06-14T10:18:01;1.73;;;1.63;;
51602;SDS011;37954;51.980;5.850;2023-06-14T10:22:29;1.83;;;1.50;;
51602;SDS011;37954;51.980;5.850;2023-06-14T10:26:51;2.33;;;1.60;;
51602;SDS011;37954;51.980;5.850;2023-06-14T10:31:08;1.50;;;1.40;;
51602;SDS011;37954;51.980;5.850;2023-06-14T10:35:22;2.03;;;1.65;;
51602;SDS011;37954;51.980;5.850;2023-06-14T10:39:43;1.80;;;1.45;;
51602;SDS011;37954;51.980;5.850;2023-06-14T10:48:32;2.03;;;1.40;;
51602;SDS011;37954;51.980;5.850;2023-06-14T10:52:43;3.15;;;1.50;;
51602;SDS011;37954;51.980;5.850;2023-06-14T10:56:57;1.90;;;1.40;;
51602;SDS011;37954;51.980;5.850;2023-06-14T11:01:10;1.30;;;1.20;;
51602;SDS011;37954;51.980;5.850;2023-06-14T11:05:24;1.30;;;1.23;;
51602;SDS011;37954;51.980;5.850;2023-06-14T11:09:42;1.58;;;1.48;;
51602;SDS011;37954;51.980;5.850;2023-06-14T11:14:16;2.85;;;1.58;;
51602;SDS011;37954;51.980;5.850;2023-06-14T11:18:29;4.90;;;1.48;;
51602;SDS011;37954;51.980;5.850;2023-06-14T11:22:44;2.20;;;1.60;;
51602;SDS011;37954;51.980;5.850;2023-06-14T11:26:56;1.58;;;1.48;;
51602;SDS011;37954;51.980;5.850;2023-06-14T11:31:09;2.10;;;1.30;;
51602;SDS011;37954;51.980;5.850;2023-06-14T11:35:24;1.50;;;1.38;;
51602;SDS011;37954;51.980;5.850;2023-06-14T11:39:37;2.55;;;1.30;;
51602;SDS011;37954;51.980;5.850;2023-06-14T11:43:55;2.33;;;1.70;;
51602;SDS011;37954;51.980;5.850;2023-06-14T11:48:07;2.40;;;1.70;;
51602;SDS011;37954;51.980;5.850;2023-06-14T11:52:19;1.45;;;1.20;;
51602;SDS011;37954;51.980;5.850;2023-06-14T11:56:31;6.15;;;1.77;;
51602;SDS011;37954;51.980;5.850;2023-06-14T12:00:43;1.23;;;1.23;;
51602;SDS011;37954;51.980;5.850;2023-06-14T12:04:55;2.33;;;1.58;;
51602;SDS011;37954;51.980;5.850;2023-06-14T12:09:08;2.60;;;1.45;;
51602;SDS011;37954;51.980;5.850;2023-06-14T12:13:25;2.90;;;1.30;;
51602;SDS011;37954;51.980;5.850;2023-06-14T12:17:38;1.60;;;1.50;;
51602;SDS011;37954;51.980;5.850;2023-06-14T12:21:53;1.33;;;1.23;;
51602;SDS011;37954;51.980;5.850;2023-06-14T12:26:05;1.73;;;1.40;;
51602;SDS011;37954;51.980;5.850;2023-06-14T12:30:19;1.30;;;1.20;;
51602;SDS011;37954;51.980;5.850;2023-06-14T12:34:31;1.80;;;1.52;;
51602;SDS011;37954;51.980;5.850;2023-06-14T12:38:43;1.65;;;1.35;;
51602;SDS011;37954;51.980;5.850;2023-06-14T12:42:55;1.45;;;1.30;;
51602;SDS011;37954;51.980;5.850;2023-06-14T12:47:07;1.23;;;1.17;;
51602;SDS011;37954;51.980;5.850;2023-06-14T12:51:19;5.85;;;1.70;;
51602;SDS011;37954;51.980;5.850;2023-06-14T12:55:30;2.33;;;1.60;;
51602;SDS011;37954;51.980;5.850;2023-06-14T12:59:43;1.50;;;1.40;;
51602;SDS011;37954;51.980;5.850;2023-06-14T13:03:55;1.60;;;1.50;;
51602;SDS011;37954;51.980;5.850;2023-06-14T13:08:07;1.50;;;1.40;;
51602;SDS011;37954;51.980;5.850;2023-06-14T13:12:22;1.50;;;1.40;;
51602;SDS011;37954;51.980;5.850;2023-06-14T13:16:34;1.50;;;1.20;;
51602;SDS011;37954;51.980;5.850;2023-06-14T13:20:47;2.05;;;1.45;;
51602;SDS011;37954;51.980;5.850;2023-06-14T13:24:59;1.30;;;1.20;;
51602;SDS011;37954;51.980;5.850;2023-06-14T13:29:11;1.40;;;1.30;;
51602;SDS011;37954;51.980;5.850;2023-06-14T13:33:22;1.10;;;1.10;;
51602;SDS011;37954;51.980;5.850;2023-06-14T13:37:35;1.20;;;1.10;;
51602;SDS011;37954;51.980;5.850;2023-06-14T13:41:47;1.60;;;1.20;;
51602;SDS011;37954;51.980;5.850;2023-06-14T13:45:59;1.15;;;1.05;;
51602;SDS011;37954;51.980;5.850;2023-06-14T13:50:11;1.00;;;1.00;;
51602;SDS011;37954;51.980;5.850;2023-06-14T13:54:22;1.27;;;1.10;;
51602;SDS011;37954;51.980;5.850;2023-06-14T13:58:34;1.40;;;1.30;;
51602;SDS011;37954;51.980;5.850;2023-06-14T14:02:46;1.33;;;1.20;;
51602;SDS011;37954;51.980;5.850;2023-06-14T14:06:57;4.78;;;1.17;;
51602;SDS011;37954;51.980;5.850;2023-06-14T14:11:09;1.48;;;1.10;;
51602;SDS011;37954;51.980;5.850;2023-06-14T14:15:21;1.52;;;1.13;;
51602;SDS011;37954;51.980;5.850;2023-06-14T14:19:33;1.40;;;1.30;;
51602;SDS011;37954;51.980;5.850;2023-06-14T14:23:44;2.17;;;1.05;;
51602;SDS011;37954;51.980;5.850;2023-06-14T14:27:57;2.95;;;1.70;;
51602;SDS011;37954;51.980;5.850;2023-06-14T14:32:08;1.23;;;1.15;;
51602;SDS011;37954;51.980;5.850;2023-06-14T14:36:24;1.40;;;1.27;;
51602;SDS011;37954;51.980;5.850;2023-06-14T14:40:36;1.35;;;1.25;;
51602;SDS011;37954;51.980;5.850;2023-06-14T14:44:48;3.00;;;1.48;;
51602;SDS011;37954;51.980;5.850;2023-06-14T14:48:59;1.92;;;1.52;;
51602;SDS011;37954;51.980;5.850;2023-06-14T14:53:11;1.75;;;1.38;;
51602;SDS011;37954;51.980;5.850;2023-06-14T14:57:24;2.13;;;1.20;;
51602;SDS011;37954;51.980;5.850;2023-06-14T15:01:36;1.23;;;1.10;;
51602;SDS011;37954;51.980;5.850;2023-06-14T15:05:47;1.45;;;1.35;;
51602;SDS011;37954;51.980;5.850;2023-06-14T15:10:00;1.73;;;1.23;;
51602;SDS011;37954;51.980;5.850;2023-06-14T15:14:12;1.10;;;1.00;;
51602;SDS011;37954;51.980;5.850;2023-06-14T15:18:23;1.42;;;1.30;;
51602;SDS011;37954;51.980;5.850;2023-06-14T15:22:35;1.40;;;1.30;;
51602;SDS011;37954;51.980;5.850;2023-06-14T15:26:47;4.18;;;1.50;;
51602;SDS011;37954;51.980;5.850;2023-06-14T15:30:59;1.30;;;1.20;;
51602;SDS011;37954;51.980;5.850;2023-06-14T15:35:12;3.67;;;1.20;;
51602;SDS011;37954;51.980;5.850;2023-06-14T15:39:23;2.10;;;1.60;;
51602;SDS011;37954;51.980;5.850;2023-06-14T15:43:37;1.40;;;1.30;;
51602;SDS011;37954;51.980;5.850;2023-06-14T15:47:48;1.40;;;1.30;;
51602;SDS011;37954;51.980;5.850;2023-06-14T15:52:00;1.42;;;1.33;;
51602;SDS011;37954;51.980;5.850;2023-06-14T15:56:12;1.60;;;1.50;;
51602;SDS011;37954;51.980;5.850;2023-06-14T16:00:24;1.95;;;1.48;;
51602;SDS011;37954;51.980;5.850;2023-06-14T16:04:37;1.55;;;1.45;;
51602;SDS011;37954;51.980;5.850;2023-06-14T16:08:49;2.00;;;1.38;;
51602;SDS011;37954;51.980;5.850;2023-06-14T16:13:01;1.25;;;1.10;;
51602;SDS011;37954;51.980;5.850;2023-06-14T16:17:13;1.60;;;1.40;;
51602;SDS011;37954;51.980;5.850;2023-06-14T16:21:24;2.35;;;1.45;;
51602;SDS011;37954;51.980;5.850;2023-06-14T16:25:37;1.58;;;1.42;;
51602;SDS011;37954;51.980;5.850;2023-06-14T16:29:49;1.42;;;1.33;;
51602;SDS011;37954;51.980;5.850;2023-06-14T16:34:01;2.17;;;1.42;;
51602;SDS011;37954;51.980;5.850;2023-06-14T16:38:13;2.55;;;1.35;;
51602;SDS011;37954;51.980;5.850;2023-06-14T16:42:25;1.52;;;1.42;;
51602;SDS011;37954;51.980;5.850;2023-06-14T16:46:37;1.63;;;1.30;;
51602;SDS011;37954;51.980;5.850;2023-06-14T16:50:50;2.03;;;1.50;;
51602;SDS011;37954;51.980;5.850;2023-06-14T16:55:02;1.30;;;1.20;;
51602;SDS011;37954;51.980;5.850;2023-06-14T16:59:14;1.48;;;1.38;;
51602;SDS011;37954;51.980;5.850;2023-06-14T17:03:26;1.65;;;1.42;;
51602;SDS011;37954;51.980;5.850;2023-06-14T17:07:39;1.23;;;1.13;;
51602;SDS011;37954;51.980;5.850;2023-06-14T17:11:50;2.80;;;1.52;;
51602;SDS011;37954;51.980;5.850;2023-06-14T17:16:02;3.17;;;1.40;;
51602;SDS011;37954;51.980;5.850;2023-06-14T17:20:16;1.33;;;1.23;;
51602;SDS011;37954;51.980;5.850;2023-06-14T17:24:28;1.67;;;1.42;;
51602;SDS011;37954;51.980;5.850;2023-06-14T17:28:40;1.38;;;1.23;;
51602;SDS011;37954;51.980;5.850;2023-06-14T17:32:52;1.65;;;1.40;;
51602;SDS011;37954;51.980;5.850;2023-06-14T17:37:04;2.90;;;1.40;;
51602;SDS011;37954;51.980;5.850;2023-06-14T17:41:17;1.65;;;1.40;;
51602;SDS011;37954;51.980;5.850;2023-06-14T17:45:29;2.20;;;1.40;;
51602;SDS011;37954;51.980;5.850;2023-06-14T17:49:41;1.45;;;1.35;;
51602;SDS011;37954;51.980;5.850;2023-06-14T17:53:52;2.47;;;1.65;;
51602;SDS011;37954;51.980;5.850;2023-06-14T17:58:04;1.65;;;1.50;;
51602;SDS011;37954;51.980;5.850;2023-06-14T18:02:16;1.60;;;1.50;;
51602;SDS011;37954;51.980;5.850;2023-06-14T18:06:29;1.77;;;1.30;;
51602;SDS011;37954;51.980;5.850;2023-06-14T18:10:40;3.42;;;1.60;;
51602;SDS011;37954;51.980;5.850;2023-06-14T18:14:53;1.50;;;1.38;;
51602;SDS011;37954;51.980;5.850;2023-06-14T18:19:05;2.10;;;1.60;;
51602;SDS011;37954;51.980;5.850;2023-06-14T18:23:16;1.45;;;1.20;;
51602;SDS011;37954;51.980;5.850;2023-06-14T18:27:28;1.38;;;1.27;;
51602;SDS011;37954;51.980;5.850;2023-06-14T18:31:40;1.52;;;1.42;;
51602;SDS011;37954;51.980;5.850;2023-06-14T18:35:52;1.55;;;1.45;;
51602;SDS011;37954;51.980;5.850;2023-06-14T18:40:03;1.50;;;1.20;;
51602;SDS011;37954;51.980;5.850;2023-06-14T18:44:16;3.00;;;1.40;;
51602;SDS011;37954;51.980;5.850;2023-06-14T18:48:27;1.70;;;1.60;;
51602;SDS011;37954;51.980;5.850;2023-06-14T18:52:39;1.63;;;1.52;;
51602;SDS011;37954;51.980;5.850;2023-06-14T18:56:51;1.55;;;1.45;;
51602;SDS011;37954;51.980;5.850;2023-06-14T19:01:03;1.70;;;1.60;;
51602;SDS011;37954;51.980;5.850;2023-06-14T19:05:14;1.60;;;1.50;;
51602;SDS011;37954;51.980;5.850;2023-06-14T19:09:27;1.42;;;1.33;;
51602;SDS011;37954;51.980;5.850;2023-06-14T19:13:38;1.58;;;1.40;;
51602;SDS011;37954;51.980;5.850;2023-06-14T19:17:59;3.53;;;1.70;;
51602;SDS011;37954;51.980;5.850;2023-06-14T19:22:17;1.42;;;1.33;;
51602;SDS011;37954;51.980;5.850;2023-06-14T19:26:29;3.40;;;1.80;;
51602;SDS011;37954;51.980;5.850;2023-06-14T19:30:42;1.63;;;1.52;;
51602;SDS011;37954;51.980;5.850;2023-06-14T19:34:56;1.85;;;1.75;;
51602;SDS011;37954;51.980;5.850;2023-06-14T19:39:11;1.80;;;1.70;;
51602;SDS011;37954;51.980;5.850;2023-06-14T19:43:23;2.13;;;1.75;;
51602;SDS011;37954;51.980;5.850;2023-06-14T19:47:35;1.92;;;1.60;;
51602;SDS011;37954;51.980;5.850;2023-06-14T19:51:47;2.75;;;1.77;;
51602;SDS011;37954;51.980;5.850;2023-06-14T19:55:58;1.40;;;1.30;;
51602;SDS011;37954;51.980;5.850;2023-06-14T20:00:10;2.30;;;1.45;;
51602;SDS011;37954;51.980;5.850;2023-06-14T20:04:24;1.98;;;1.60;;
51602;SDS011;37954;51.980;5.850;2023-06-14T20:08:36;2.40;;;1.90;;
51602;SDS011;37954;51.980;5.850;2023-06-14T20:12:48;1.60;;;1.50;;
51602;SDS011;37954;51.980;5.850;2023-06-14T20:16:59;1.52;;;1.42;;
51602;SDS011;37954;51.980;5.850;2023-06-14T20:21:11;1.40;;;1.30;;
51602;SDS011;37954;51.980;5.850;2023-06-14T20:25:23;4.55;;;1.77;;
51602;SDS011;37954;51.980;5.850;2023-06-14T20:29:35;1.48;;;1.38;;
51602;SDS011;37954;51.980;5.850;2023-06-14T20:33:47;1.40;;;1.30;;
51602;SDS011;37954;51.980;5.850;2023-06-14T20:38:03;1.65;;;1.42;;
51602;SDS011;37954;51.980;5.850;2023-06-14T20:42:16;1.85;;;1.40;;
51602;SDS011;37954;51.980;5.850;2023-06-14T20:46:40;1.55;;;1.45;;
51602;SDS011;37954;51.980;5.850;2023-06-14T20:50:56;1.52;;;1.42;;
51602;SDS011;37954;51.980;5.850;2023-06-14T20:55:07;2.15;;;1.50;;
51602;SDS011;37954;51.980;5.850;2023-06-14T20:59:19;1.48;;;1.38;;
51602;SDS011;37954;51.980;5.850;2023-06-14T21:03:31;1.52;;;1.42;;
51602;SDS011;37954;51.980;5.850;2023-06-14T21:07:43;1.38;;;1.27;;
51602;SDS011;37954;51.980;5.850;2023-06-14T21:16:32;1.52;;;1.42;;
51602;SDS011;37954;51.980;5.850;2023-06-14T21:20:44;3.65;;;1.58;;
51602;SDS011;37954;51.980;5.850;2023-06-14T21:24:56;1.60;;;1.50;;
51602;SDS011;37954;51.980;5.850;2023-06-14T21:29:07;1.30;;;1.20;;
51602;SDS011;37954;51.980;5.850;2023-06-14T21:33:19;1.80;;;1.70;;
51602;SDS011;37954;51.980;5.850;2023-06-14T21:37:31;1.50;;;1.40;;
51602;SDS011;37954;51.980;5.850;2023-06-14T21:41:43;1.73;;;1.45;;
51602;SDS011;37954;51.980;5.850;2023-06-14T21:45:55;1.50;;;1.40;;
51602;SDS011;37954;51.980;5.850;2023-06-14T21:50:06;1.60;;;1.50;;
51602;SDS011;37954;51.980;5.850;2023-06-14T21:54:18;1.60;;;1.50;;
51602;SDS011;37954;51.980;5.850;2023-06-14T21:58:30;1.80;;;1.60;;
51602;SDS011;37954;51.980;5.850;2023-06-14T22:02:42;2.28;;;1.77;;
51602;SDS011;37954;51.980;5.850;2023-06-14T22:06:54;1.58;;;1.48;;
51602;SDS011;37954;51.980;5.850;2023-06-14T22:11:07;2.55;;;1.67;;
51602;SDS011;37954;51.980;5.850;2023-06-14T22:15:21;1.95;;;1.70;;
51602;SDS011;37954;51.980;5.850;2023-06-14T22:19:34;1.98;;;1.73;;
51602;SDS011;37954;51.980;5.850;2023-06-14T22:23:48;1.63;;;1.50;;
51602;SDS011;37954;51.980;5.850;2023-06-14T22:28:00;1.80;;;1.67;;
51602;SDS011;37954;51.980;5.850;2023-06-14T22:32:12;3.28;;;1.75;;
51602;SDS011;37954;51.980;5.850;2023-06-14T22:36:25;3.38;;;1.50;;
51602;SDS011;37954;51.980;5.850;2023-06-14T22:40:37;1.52;;;1.42;;
51602;SDS011;37954;51.980;5.850;2023-06-14T22:44:49;2.10;;;1.90;;
51602;SDS011;37954;51.980;5.850;2023-06-14T22:49:01;1.85;;;1.65;;
51602;SDS011;37954;51.980;5.850;2023-06-14T22:53:13;2.10;;;1.80;;
51602;SDS011;37954;51.980;5.850;2023-06-14T22:57:26;7.50;;;1.80;;
51602;SDS011;37954;51.980;5.850;2023-06-14T23:01:39;1.70;;;1.60;;
51602;SDS011;37954;51.980;5.850;2023-06-14T23:05:53;2.13;;;1.77;;
51602;SDS011;37954;51.980;5.850;2023-06-14T23:10:07;2.47;;;1.70;;
51602;SDS011;37954;51.980;5.850;2023-06-14T23:14:19;3.30;;;1.90;;
51602;SDS011;37954;51.980;5.850;2023-06-14T23:18:32;1.55;;;1.45;;
51602;SDS011;37954;51.980;5.850;2023-06-14T23:22:43;1.90;;;1.70;;
51602;SDS011;37954;51.980;5.850;2023-06-14T23:26:55;1.88;;;1.67;;
51602;SDS011;37954;51.980;5.850;2023-06-14T23:31:09;2.95;;;1.80;;
51602;SDS011;37954;51.980;5.850;2023-06-14T23:35:23;1.60;;;1.50;;
51602;SDS011;37954;51.980;5.850;2023-06-14T23:39:37;2.30;;;2.03;;
51602;SDS011;37954;51.980;5.850;2023-06-14T23:43:59;2.50;;;1.73;;
51602;SDS011;37954;51.980;5.850;2023-06-14T23:48:15;2.17;;;2.03;;
51602;SDS011;37954;51.980;5.850;2023-06-14T23:52:28;2.78;;;2.20;;
51602;SDS011;37954;51.980;5.850;2023-06-14T23:56:43;2.05;;;1.85;;
